sensor_id;sensor_type;location;lat;lon;timestamp;temperature;humidity
77056;SHT30;67471;44.918;8.614;2023-12-04T00:00:38;3.15;78.09
77056;SHT30;67471;44.918;8.614;2023-12-04T00:03:42;3.16;78.09
77056;SHT30;67471;44.918;8.614;2023-12-04T00:06:46;3.19;77.74
77056;SHT30;67471;44.918;8.614;2023-12-04T00:09:50;3.20;77.41
77056;SHT30;67471;44.918;8.614;2023-12-04T00:12:54;3.12;77.84
77056;SHT30;67471;44.918;8.614;2023-12-04T00:15:58;3.22;77.42
77056;SHT30;67471;44.918;8.614;2023-12-04T00:19:02;3.23;77.37
77056;SHT30;67471;44.918;8.614;2023-12-04T00:22:06;3.32;76.92
77056;SHT30;67471;44.918;8.614;2023-12-04T00:25:10;3.39;76.55
77056;SHT30;67471;44.918;8.614;2023-12-04T00:28:14;3.35;76.39
77056;SHT30;67471;44.918;8.614;2023-12-04T00:31:18;3.25;76.61
77056;SHT30;67471;44.918;8.614;2023-12-04T00:34:21;3.18;76.84
77056;SHT30;67471;44.918;8.614;2023-12-04T00:37:26;3.22;76.39
77056;SHT30;67471;44.918;8.614;2023-12-04T00:40:31;3.23;76.70
77056;SHT30;67471;44.918;8.614;2023-12-04T00:43:35;3.15;76.45
77056;SHT30;67471;44.918;8.614;2023-12-04T00:46:38;3.18;76.78
77056;SHT30;67471;44.918;8.614;2023-12-04T00:49:42;3.22;76.39
77056;SHT30;67471;44.918;8.614;2023-12-04T00:52:46;3.20;76.54
77056;SHT30;67471;44.918;8.614;2023-12-04T00:55:50;3.05;76.76
77056;SHT30;67471;44.918;8.614;2023-12-04T00:58:53;3.11;76.92
77056;SHT30;67471;44.918;8.614;2023-12-04T01:01:57;2.98;76.96
77056;SHT30;67471;44.918;8.614;2023-12-04T01:05:01;2.84;77.23
77056;SHT30;67471;44.918;8.614;2023-12-04T01:08:05;2.97;76.89
77056;SHT30;67471;44.918;8.614;2023-12-04T01:11:09;2.97;76.93
77056;SHT30;67471;44.918;8.614;2023-12-04T01:14:13;2.87;76.82
77056;SHT30;67471;44.918;8.614;2023-12-04T01:17:17;2.91;76.67
77056;SHT30;67471;44.918;8.614;2023-12-04T01:20:21;2.78;76.94
77056;SHT30;67471;44.918;8.614;2023-12-04T01:23:25;2.80;76.74
77056;SHT30;67471;44.918;8.614;2023-12-04T01:26:29;2.64;77.12
77056;SHT30;67471;44.918;8.614;2023-12-04T01:29:33;2.65;76.98
77056;SHT30;67471;44.918;8.614;2023-12-04T01:32:37;2.62;77.32
77056;SHT30;67471;44.918;8.614;2023-12-04T01:35:40;2.56;77.33
77056;SHT30;67471;44.918;8.614;2023-12-04T01:38:44;2.61;77.13
77056;SHT30;67471;44.918;8.614;2023-12-04T01:41:48;2.60;77.01
77056;SHT30;67471;44.918;8.614;2023-12-04T01:44:52;2.58;76.60
77056;SHT30;67471;44.918;8.614;2023-12-04T01:47:55;2.57;76.60
77056;SHT30;67471;44.918;8.614;2023-12-04T01:51:04;2.44;77.22
77056;SHT30;67471;44.918;8.614;2023-12-04T01:54:09;2.46;77.30
77056;SHT30;67471;44.918;8.614;2023-12-04T01:57:13;2.41;77.24
77056;SHT30;67471;44.918;8.614;2023-12-04T02:00:17;2.32;78.08
77056;SHT30;67471;44.918;8.614;2023-12-04T02:03:23;2.30;77.60
77056;SHT30;67471;44.918;8.614;2023-12-04T02:06:27;2.33;77.49
77056;SHT30;67471;44.918;8.614;2023-12-04T02:09:31;2.32;78.00
77056;SHT30;67471;44.918;8.614;2023-12-04T02:12:34;2.22;78.28
77056;SHT30;67471;44.918;8.614;2023-12-04T02:15:38;2.16;78.76
77056;SHT30;67471;44.918;8.614;2023-12-04T02:18:43;2.27;78.77
77056;SHT30;67471;44.918;8.614;2023-12-04T02:21:47;2.33;78.36
77056;SHT30;67471;44.918;8.614;2023-12-04T02:24:50;2.34;78.04
77056;SHT30;67471;44.918;8.614;2023-12-04T02:27:56;2.29;78.13
77056;SHT30;67471;44.918;8.614;2023-12-04T02:31:04;2.36;77.81
77056;SHT30;67471;44.918;8.614;2023-12-04T02:34:10;2.36;78.23
77056;SHT30;67471;44.918;8.614;2023-12-04T02:37:16;2.37;77.68
77056;SHT30;67471;44.918;8.614;2023-12-04T02:40:20;2.34;77.95
77056;SHT30;67471;44.918;8.614;2023-12-04T02:43:24;2.33;78.14
77056;SHT30;67471;44.918;8.614;2023-12-04T02:46:28;2.41;77.94
77056;SHT30;67471;44.918;8.614;2023-12-04T02:49:32;2.48;77.57
77056;SHT30;67471;44.918;8.614;2023-12-04T02:52:35;2.50;77.73
77056;SHT30;67471;44.918;8.614;2023-12-04T02:55:39;2.48;77.76
77056;SHT30;67471;44.918;8.614;2023-12-04T02:58:43;2.62;77.55
77056;SHT30;67471;44.918;8.614;2023-12-04T03:01:47;2.64;77.57
77056;SHT30;67471;44.918;8.614;2023-12-04T03:04:50;2.78;76.88
77056;SHT30;67471;44.918;8.614;2023-12-04T03:07:54;2.70;76.51
77056;SHT30;67471;44.918;8.614;2023-12-04T03:10:58;2.65;76.31
77056;SHT30;67471;44.918;8.614;2023-12-04T03:14:02;2.70;75.41
77056;SHT30;67471;44.918;8.614;2023-12-04T03:17:05;2.56;76.06
77056;SHT30;67471;44.918;8.614;2023-12-04T03:20:10;2.73;75.09
77056;SHT30;67471;44.918;8.614;2023-12-04T03:23:14;2.65;75.54
77056;SHT30;67471;44.918;8.614;2023-12-04T03:26:18;2.62;75.76
77056;SHT30;67471;44.918;8.614;2023-12-04T03:29:21;2.74;75.62
77056;SHT30;67471;44.918;8.614;2023-12-04T03:32:25;2.78;75.75
77056;SHT30;67471;44.918;8.614;2023-12-04T03:35:29;2.83;75.54
77056;SHT30;67471;44.918;8.614;2023-12-04T03:38:33;2.81;75.97
77056;SHT30;67471;44.918;8.614;2023-12-04T03:41:36;2.91;75.56
77056;SHT30;67471;44.918;8.614;2023-12-04T03:44:40;2.94;75.52
77056;SHT30;67471;44.918;8.614;2023-12-04T03:47:44;2.85;75.59
77056;SHT30;67471;44.918;8.614;2023-12-04T03:50:48;2.92;75.23
77056;SHT30;67471;44.918;8.614;2023-12-04T03:53:51;2.95;75.22
77056;SHT30;67471;44.918;8.614;2023-12-04T03:56:55;2.89;74.61
77056;SHT30;67471;44.918;8.614;2023-12-04T03:59:59;2.77;74.99
77056;SHT30;67471;44.918;8.614;2023-12-04T04:03:03;2.73;75.45
77056;SHT30;67471;44.918;8.614;2023-12-04T04:06:07;2.71;75.69
77056;SHT30;67471;44.918;8.614;2023-12-04T04:09:11;2.80;75.13
77056;SHT30;67471;44.918;8.614;2023-12-04T04:12:15;2.73;75.64
77056;SHT30;67471;44.918;8.614;2023-12-04T04:15:19;2.78;75.87
77056;SHT30;67471;44.918;8.614;2023-12-04T04:18:23;2.83;75.73
77056;SHT30;67471;44.918;8.614;2023-12-04T04:21:26;2.73;76.73
77056;SHT30;67471;44.918;8.614;2023-12-04T04:24:30;2.81;75.97
77056;SHT30;67471;44.918;8.614;2023-12-04T04:27:34;2.74;76.07
77056;SHT30;67471;44.918;8.614;2023-12-04T04:30:38;2.78;76.16
77056;SHT30;67471;44.918;8.614;2023-12-04T04:33:43;2.73;76.22
77056;SHT30;67471;44.918;8.614;2023-12-04T04:36:47;2.85;75.70
77056;SHT30;67471;44.918;8.614;2023-12-04T04:39:50;2.84;75.19
77056;SHT30;67471;44.918;8.614;2023-12-04T04:42:54;2.78;75.78
77056;SHT30;67471;44.918;8.614;2023-12-04T04:45:58;2.83;76.35
77056;SHT30;67471;44.918;8.614;2023-12-04T04:49:02;2.84;76.20
77056;SHT30;67471;44.918;8.614;2023-12-04T04:52:10;2.84;76.02
77056;SHT30;67471;44.918;8.614;2023-12-04T04:55:13;2.95;75.20
77056;SHT30;67471;44.918;8.614;2023-12-04T04:58:18;2.83;75.28
77056;SHT30;67471;44.918;8.614;2023-12-04T05:01:21;2.84;75.30
77056;SHT30;67471;44.918;8.614;2023-12-04T05:04:25;2.87;75.16
77056;SHT30;67471;44.918;8.614;2023-12-04T05:07:29;2.78;75.35
77056;SHT30;67471;44.918;8.614;2023-12-04T05:10:33;2.73;75.67
77056;SHT30;67471;44.918;8.614;2023-12-04T05:13:37;2.64;76.02
77056;SHT30;67471;44.918;8.614;2023-12-04T05:16:40;2.74;75.61
77056;SHT30;67471;44.918;8.614;2023-12-04T05:19:44;2.68;75.90
77056;SHT30;67471;44.918;8.614;2023-12-04T05:22:49;2.74;75.89
77056;SHT30;67471;44.918;8.614;2023-12-04T05:25:53;2.60;76.58
77056;SHT30;67471;44.918;8.614;2023-12-04T05:28:57;2.64;76.72
77056;SHT30;67471;44.918;8.614;2023-12-04T05:32:00;2.65;76.90
77056;SHT30;67471;44.918;8.614;2023-12-04T05:35:04;2.73;76.32
77056;SHT30;67471;44.918;8.614;2023-12-04T05:38:08;2.73;76.30
77056;SHT30;67471;44.918;8.614;2023-12-04T05:41:12;2.73;76.68
77056;SHT30;67471;44.918;8.614;2023-12-04T05:44:16;2.83;76.62
77056;SHT30;67471;44.918;8.614;2023-12-04T05:47:19;2.77;77.09
77056;SHT30;67471;44.918;8.614;2023-12-04T05:50:23;2.92;76.67
77056;SHT30;67471;44.918;8.614;2023-12-04T05:53:27;2.94;76.57
77056;SHT30;67471;44.918;8.614;2023-12-04T05:56:32;2.92;76.93
77056;SHT30;67471;44.918;8.614;2023-12-04T05:59:35;2.89;76.60
77056;SHT30;67471;44.918;8.614;2023-12-04T06:02:43;2.81;77.31
77056;SHT30;67471;44.918;8.614;2023-12-04T06:05:47;3.02;76.54
77056;SHT30;67471;44.918;8.614;2023-12-04T06:08:51;3.02;76.50
77056;SHT30;67471;44.918;8.614;2023-12-04T06:11:54;3.02;76.83
77056;SHT30;67471;44.918;8.614;2023-12-04T06:14:58;3.07;77.02
77056;SHT30;67471;44.918;8.614;2023-12-04T06:18:02;3.04;77.67
77056;SHT30;67471;44.918;8.614;2023-12-04T06:21:06;3.09;77.52
77056;SHT30;67471;44.918;8.614;2023-12-04T06:24:10;3.12;77.01
77056;SHT30;67471;44.918;8.614;2023-12-04T06:27:16;3.18;76.84
77056;SHT30;67471;44.918;8.614;2023-12-04T06:30:20;3.19;76.58
77056;SHT30;67471;44.918;8.614;2023-12-04T06:33:24;3.15;76.39
77056;SHT30;67471;44.918;8.614;2023-12-04T06:36:31;3.15;76.77
77056;SHT30;67471;44.918;8.614;2023-12-04T06:39:39;3.05;76.71
77056;SHT30;67471;44.918;8.614;2023-12-04T06:42:44;2.95;76.90
77056;SHT30;67471;44.918;8.614;2023-12-04T06:45:47;2.95;77.18
77056;SHT30;67471;44.918;8.614;2023-12-04T06:48:52;2.97;77.15
77056;SHT30;67471;44.918;8.614;2023-12-04T06:52:01;3.12;76.84
77056;SHT30;67471;44.918;8.614;2023-12-04T06:55:05;3.20;76.87
77056;SHT30;67471;44.918;8.614;2023-12-04T06:58:09;3.23;76.93
77056;SHT30;67471;44.918;8.614;2023-12-04T07:01:13;3.23;76.47
77056;SHT30;67471;44.918;8.614;2023-12-04T07:04:17;3.18;76.84
77056;SHT30;67471;44.918;8.614;2023-12-04T07:07:24;3.22;76.33
77056;SHT30;67471;44.918;8.614;2023-12-04T07:10:28;3.18;76.57
77056;SHT30;67471;44.918;8.614;2023-12-04T07:13:32;3.16;76.30
77056;SHT30;67471;44.918;8.614;2023-12-04T07:16:40;3.12;76.51
77056;SHT30;67471;44.918;8.614;2023-12-04T07:19:45;3.18;76.67
77056;SHT30;67471;44.918;8.614;2023-12-04T07:22:49;3.22;76.50
77056;SHT30;67471;44.918;8.614;2023-12-04T07:25:53;3.04;76.62
77056;SHT30;67471;44.918;8.614;2023-12-04T07:28:57;2.99;76.62
77056;SHT30;67471;44.918;8.614;2023-12-04T07:32:00;3.11;76.02
77056;SHT30;67471;44.918;8.614;2023-12-04T07:35:05;3.04;76.31
77056;SHT30;67471;44.918;8.614;2023-12-04T07:38:09;2.99;76.38
77056;SHT30;67471;44.918;8.614;2023-12-04T07:41:13;3.12;76.22
77056;SHT30;67471;44.918;8.614;2023-12-04T07:44:17;3.22;76.29
77056;SHT30;67471;44.918;8.614;2023-12-04T07:47:21;3.30;76.13
77056;SHT30;67471;44.918;8.614;2023-12-04T07:50:25;3.23;76.73
77056;SHT30;67471;44.918;8.614;2023-12-04T07:53:29;3.22;76.60
77056;SHT30;67471;44.918;8.614;2023-12-04T07:56:33;3.35;76.24
77056;SHT30;67471;44.918;8.614;2023-12-04T07:59:36;3.19;77.00
77056;SHT30;67471;44.918;8.614;2023-12-04T08:02:40;3.28;76.47
77056;SHT30;67471;44.918;8.614;2023-12-04T08:05:48;3.28;76.44
77056;SHT30;67471;44.918;8.614;2023-12-04T08:08:52;3.32;76.59
77056;SHT30;67471;44.918;8.614;2023-12-04T08:11:56;3.38;76.62
77056;SHT30;67471;44.918;8.614;2023-12-04T08:15:00;3.29;76.59
77056;SHT30;67471;44.918;8.614;2023-12-04T08:18:07;3.35;76.16
77056;SHT30;67471;44.918;8.614;2023-12-04T08:21:11;3.49;75.96
77056;SHT30;67471;44.918;8.614;2023-12-04T08:24:15;3.44;76.28
77056;SHT30;67471;44.918;8.614;2023-12-04T08:27:22;3.46;76.15
77056;SHT30;67471;44.918;8.614;2023-12-04T08:30:26;3.36;75.96
77056;SHT30;67471;44.918;8.614;2023-12-04T08:33:31;2.71;78.24
77056;SHT30;67471;44.918;8.614;2023-12-04T08:36:34;2.78;79.27
77056;SHT30;67471;44.918;8.614;2023-12-04T08:39:38;3.09;78.60
77056;SHT30;67471;44.918;8.614;2023-12-04T08:42:43;3.18;77.67
77056;SHT30;67471;44.918;8.614;2023-12-04T08:45:47;2.73;78.93
77056;SHT30;67471;44.918;8.614;2023-12-04T08:48:51;3.02;78.76
77056;SHT30;67471;44.918;8.614;2023-12-04T08:51:55;3.20;78.42
77056;SHT30;67471;44.918;8.614;2023-12-04T08:54:59;3.32;77.26
77056;SHT30;67471;44.918;8.614;2023-12-04T08:58:03;2.99;79.41
77056;SHT30;67471;44.918;8.614;2023-12-04T09:01:07;2.97;79.08
77056;SHT30;67471;44.918;8.614;2023-12-04T09:04:11;3.35;77.93
77056;SHT30;67471;44.918;8.614;2023-12-04T09:07:15;3.60;77.37
77056;SHT30;67471;44.918;8.614;2023-12-04T09:10:19;3.43;77.96
77056;SHT30;67471;44.918;8.614;2023-12-04T09:13:23;3.20;78.51
77056;SHT30;67471;44.918;8.614;2023-12-04T09:16:27;3.57;77.53
77056;SHT30;67471;44.918;8.614;2023-12-04T09:19:31;3.71;76.94
77056;SHT30;67471;44.918;8.614;2023-12-04T09:22:35;3.77;76.44
77056;SHT30;67471;44.918;8.614;2023-12-04T09:25:42;3.93;76.27
77056;SHT30;67471;44.918;8.614;2023-12-04T09:28:45;3.86;76.42
77056;SHT30;67471;44.918;8.614;2023-12-04T09:31:51;3.91;76.16
77056;SHT30;67471;44.918;8.614;2023-12-04T09:34:55;3.91;76.62
77056;SHT30;67471;44.918;8.614;2023-12-04T09:37:59;3.90;77.02
77056;SHT30;67471;44.918;8.614;2023-12-04T09:41:03;3.80;76.91
77056;SHT30;67471;44.918;8.614;2023-12-04T09:44:07;3.83;76.18
77056;SHT30;67471;44.918;8.614;2023-12-04T09:47:11;3.69;76.39
77056;SHT30;67471;44.918;8.614;2023-12-04T09:50:16;3.70;76.52
77056;SHT30;67471;44.918;8.614;2023-12-04T09:53:26;3.71;76.75
77056;SHT30;67471;44.918;8.614;2023-12-04T09:56:33;3.86;75.91
77056;SHT30;67471;44.918;8.614;2023-12-04T09:59:37;3.87;75.61
77056;SHT30;67471;44.918;8.614;2023-12-04T10:02:41;3.83;75.47
77056;SHT30;67471;44.918;8.614;2023-12-04T10:05:46;3.91;75.40
77056;SHT30;67471;44.918;8.614;2023-12-04T10:08:50;3.90;75.80
77056;SHT30;67471;44.918;8.614;2023-12-04T10:11:59;3.94;75.67
77056;SHT30;67471;44.918;8.614;2023-12-04T10:15:05;3.83;76.05
77056;SHT30;67471;44.918;8.614;2023-12-04T10:18:24;3.94;75.25
77056;SHT30;67471;44.918;8.614;2023-12-04T10:21:32;3.93;75.81
77056;SHT30;67471;44.918;8.614;2023-12-04T10:24:38;3.97;75.51
77056;SHT30;67471;44.918;8.614;2023-12-04T10:27:42;3.94;75.36
77056;SHT30;67471;44.918;8.614;2023-12-04T10:30:47;4.05;75.03
77056;SHT30;67471;44.918;8.614;2023-12-04T10:33:50;4.01;74.86
77056;SHT30;67471;44.918;8.614;2023-12-04T10:36:55;4.00;75.71
77056;SHT30;67471;44.918;8.614;2023-12-04T10:39:58;4.14;75.02
77056;SHT30;67471;44.918;8.614;2023-12-04T10:43:20;4.07;75.28
77056;SHT30;67471;44.918;8.614;2023-12-04T10:46:25;3.95;75.87
77056;SHT30;67471;44.918;8.614;2023-12-04T10:49:28;4.05;75.23
77056;SHT30;67471;44.918;8.614;2023-12-04T10:52:33;3.97;75.98
77056;SHT30;67471;44.918;8.614;2023-12-04T10:55:37;3.73;76.63
77056;SHT30;67471;44.918;8.614;2023-12-04T10:58:42;4.00;75.82
77056;SHT30;67471;44.918;8.614;2023-12-04T11:01:46;3.93;76.36
77056;SHT30;67471;44.918;8.614;2023-12-04T11:04:51;4.01;75.63
77056;SHT30;67471;44.918;8.614;2023-12-04T11:08:00;4.05;75.43
77056;SHT30;67471;44.918;8.614;2023-12-04T11:11:06;4.05;75.53
77056;SHT30;67471;44.918;8.614;2023-12-04T11:14:14;3.74;76.78
77056;SHT30;67471;44.918;8.614;2023-12-04T11:17:20;3.90;76.34
77056;SHT30;67471;44.918;8.614;2023-12-04T11:20:27;3.93;75.86
77056;SHT30;67471;44.918;8.614;2023-12-04T11:23:32;3.95;76.32
77056;SHT30;67471;44.918;8.614;2023-12-04T11:26:36;3.97;76.06
77056;SHT30;67471;44.918;8.614;2023-12-04T11:29:40;3.95;75.40
77056;SHT30;67471;44.918;8.614;2023-12-04T11:32:48;4.00;75.92
77056;SHT30;67471;44.918;8.614;2023-12-04T11:35:52;4.02;76.13
77056;SHT30;67471;44.918;8.614;2023-12-04T11:38:56;4.14;76.02
77056;SHT30;67471;44.918;8.614;2023-12-04T11:42:06;4.27;75.52
77056;SHT30;67471;44.918;8.614;2023-12-04T11:45:20;4.14;76.14
77056;SHT30;67471;44.918;8.614;2023-12-04T11:48:24;4.14;75.92
77056;SHT30;67471;44.918;8.614;2023-12-04T11:58:09;3.77;77.55
77056;SHT30;67471;44.918;8.614;2023-12-04T12:01:17;3.98;76.93
77056;SHT30;67471;44.918;8.614;2023-12-04T12:04:20;4.04;76.52
77056;SHT30;67471;44.918;8.614;2023-12-04T12:07:25;4.01;76.79
77056;SHT30;67471;44.918;8.614;2023-12-04T12:10:29;3.87;78.28
77056;SHT30;67471;44.918;8.614;2023-12-04T12:13:33;3.67;79.26
77056;SHT30;67471;44.918;8.614;2023-12-04T12:16:37;3.74;79.22
77056;SHT30;67471;44.918;8.614;2023-12-04T12:19:41;3.63;79.53
77056;SHT30;67471;44.918;8.614;2023-12-04T12:22:45;3.79;79.36
77056;SHT30;67471;44.918;8.614;2023-12-04T12:25:49;3.94;78.57
77056;SHT30;67471;44.918;8.614;2023-12-04T12:28:53;4.04;78.25
77056;SHT30;67471;44.918;8.614;2023-12-04T12:31:57;4.07;77.58
77056;SHT30;67471;44.918;8.614;2023-12-04T12:35:01;4.08;77.62
77056;SHT30;67471;44.918;8.614;2023-12-04T12:38:05;4.11;78.05
77056;SHT30;67471;44.918;8.614;2023-12-04T12:41:09;4.12;78.55
77056;SHT30;67471;44.918;8.614;2023-12-04T12:44:15;4.14;78.75
77056;SHT30;67471;44.918;8.614;2023-12-04T12:47:19;4.17;78.47
77056;SHT30;67471;44.918;8.614;2023-12-04T12:50:24;4.31;78.01
77056;SHT30;67471;44.918;8.614;2023-12-04T12:53:27;3.98;79.44
77056;SHT30;67471;44.918;8.614;2023-12-04T12:56:31;4.15;78.72
77056;SHT30;67471;44.918;8.614;2023-12-04T12:59:35;4.17;78.46
77056;SHT30;67471;44.918;8.614;2023-12-04T13:02:39;3.93;79.42
77056;SHT30;67471;44.918;8.614;2023-12-04T13:05:43;3.07;83.40
77056;SHT30;67471;44.918;8.614;2023-12-04T13:08:47;3.35;82.25
77056;SHT30;67471;44.918;8.614;2023-12-04T13:11:51;3.63;81.18
77056;SHT30;67471;44.918;8.614;2023-12-04T13:14:56;3.63;80.93
77056;SHT30;67471;44.918;8.614;2023-12-04T13:17:59;2.91;83.89
77056;SHT30;67471;44.918;8.614;2023-12-04T13:21:03;3.09;83.51
77056;SHT30;67471;44.918;8.614;2023-12-04T13:24:07;3.05;84.03
77056;SHT30;67471;44.918;8.614;2023-12-04T13:27:12;2.94;84.84
77056;SHT30;67471;44.918;8.614;2023-12-04T13:30:17;2.81;84.64
77056;SHT30;67471;44.918;8.614;2023-12-04T13:33:21;2.84;84.38
77056;SHT30;67471;44.918;8.614;2023-12-04T13:36:24;3.22;83.29
77056;SHT30;67471;44.918;8.614;2023-12-04T13:39:28;3.48;82.12
77056;SHT30;67471;44.918;8.614;2023-12-04T13:42:53;3.56;82.43
77056;SHT30;67471;44.918;8.614;2023-12-04T13:46:15;3.70;81.79
77056;SHT30;67471;44.918;8.614;2023-12-04T13:49:19;3.38;82.55
77056;SHT30;67471;44.918;8.614;2023-12-04T13:52:23;3.57;81.42
77056;SHT30;67471;44.918;8.614;2023-12-04T13:55:26;3.67;81.56
77056;SHT30;67471;44.918;8.614;2023-12-04T13:58:49;3.62;82.09
77056;SHT30;67471;44.918;8.614;2023-12-04T14:01:59;3.46;82.01
77056;SHT30;67471;44.918;8.614;2023-12-04T14:05:04;3.56;81.61
77056;SHT30;67471;44.918;8.614;2023-12-04T14:08:08;3.60;81.91
77056;SHT30;67471;44.918;8.614;2023-12-04T14:11:12;3.64;81.91
77056;SHT30;67471;44.918;8.614;2023-12-04T14:14:18;3.50;81.37
77056;SHT30;67471;44.918;8.614;2023-12-04T14:17:22;3.40;82.69
77056;SHT30;67471;44.918;8.614;2023-12-04T14:20:25;3.59;81.63
77056;SHT30;67471;44.918;8.614;2023-12-04T14:23:29;3.25;82.59
77056;SHT30;67471;44.918;8.614;2023-12-04T14:26:33;3.36;82.30
77056;SHT30;67471;44.918;8.614;2023-12-04T14:29:37;3.44;83.05
77056;SHT30;67471;44.918;8.614;2023-12-04T14:32:40;3.53;82.37
77056;SHT30;67471;44.918;8.614;2023-12-04T14:35:44;3.42;82.88
77056;SHT30;67471;44.918;8.614;2023-12-04T14:38:48;2.95;83.96
77056;SHT30;67471;44.918;8.614;2023-12-04T14:41:52;3.04;84.63
77056;SHT30;67471;44.918;8.614;2023-12-04T14:44:56;2.76;85.80
77056;SHT30;67471;44.918;8.614;2023-12-04T14:48:00;2.77;85.60
77056;SHT30;67471;44.918;8.614;2023-12-04T14:51:04;3.07;84.91
77056;SHT30;67471;44.918;8.614;2023-12-04T14:54:08;3.29;83.88
77056;SHT30;67471;44.918;8.614;2023-12-04T14:57:24;3.30;83.30
77056;SHT30;67471;44.918;8.614;2023-12-04T15:00:44;2.87;84.43
77056;SHT30;67471;44.918;8.614;2023-12-04T15:04:07;2.56;85.74
77056;SHT30;67471;44.918;8.614;2023-12-04T15:07:22;2.62;85.87
77056;SHT30;67471;44.918;8.614;2023-12-04T15:11:00;2.85;85.73
77056;SHT30;67471;44.918;8.614;2023-12-04T15:14:22;2.91;85.36
77056;SHT30;67471;44.918;8.614;2023-12-04T15:17:44;3.22;84.19
77056;SHT30;67471;44.918;8.614;2023-12-04T15:20:53;3.36;83.45
77056;SHT30;67471;44.918;8.614;2023-12-04T15:23:57;3.39;83.51
77056;SHT30;67471;44.918;8.614;2023-12-04T15:27:00;3.09;83.33
77056;SHT30;67471;44.918;8.614;2023-12-04T15:30:06;3.20;83.88
77056;SHT30;67471;44.918;8.614;2023-12-04T15:33:11;3.46;82.93
77056;SHT30;67471;44.918;8.614;2023-12-04T15:36:15;3.50;82.70
77056;SHT30;67471;44.918;8.614;2023-12-04T15:39:20;3.39;82.81
77056;SHT30;67471;44.918;8.614;2023-12-04T15:42:24;3.49;82.22
77056;SHT30;67471;44.918;8.614;2023-12-04T15:45:28;3.50;82.33
77056;SHT30;67471;44.918;8.614;2023-12-04T15:48:32;3.74;81.24
77056;SHT30;67471;44.918;8.614;2023-12-04T15:51:36;3.69;81.52
77056;SHT30;67471;44.918;8.614;2023-12-04T15:54:40;3.62;81.57
77056;SHT30;67471;44.918;8.614;2023-12-04T15:57:44;3.22;82.89
77056;SHT30;67471;44.918;8.614;2023-12-04T16:00:48;3.60;81.72
77056;SHT30;67471;44.918;8.614;2023-12-04T16:03:52;3.64;81.87
77056;SHT30;67471;44.918;8.614;2023-12-04T16:06:56;3.76;81.48
77056;SHT30;67471;44.918;8.614;2023-12-04T16:10:00;3.80;81.56
77056;SHT30;67471;44.918;8.614;2023-12-04T16:13:03;3.80;81.63
77056;SHT30;67471;44.918;8.614;2023-12-04T16:16:09;3.94;81.05
77056;SHT30;67471;44.918;8.614;2023-12-04T16:19:13;3.93;80.68
77056;SHT30;67471;44.918;8.614;2023-12-04T16:22:16;4.01;80.18
77056;SHT30;67471;44.918;8.614;2023-12-04T16:25:21;4.07;80.03
77056;SHT30;67471;44.918;8.614;2023-12-04T16:28:26;4.11;79.70
77056;SHT30;67471;44.918;8.614;2023-12-04T16:31:29;3.97;80.25
77056;SHT30;67471;44.918;8.614;2023-12-04T16:34:33;3.93;81.15
77056;SHT30;67471;44.918;8.614;2023-12-04T16:37:37;4.01;80.94
77056;SHT30;67471;44.918;8.614;2023-12-04T16:40:43;4.07;80.40
77056;SHT30;67471;44.918;8.614;2023-12-04T16:43:46;4.10;80.12
77056;SHT30;67471;44.918;8.614;2023-12-04T16:46:50;4.07;80.30
77056;SHT30;67471;44.918;8.614;2023-12-04T16:49:59;4.08;80.13
77056;SHT30;67471;44.918;8.614;2023-12-04T16:53:03;4.05;80.05
77056;SHT30;67471;44.918;8.614;2023-12-04T16:56:15;3.91;80.66
77056;SHT30;67471;44.918;8.614;2023-12-04T16:59:21;3.94;80.80
77056;SHT30;67471;44.918;8.614;2023-12-04T17:02:25;3.95;80.81
77056;SHT30;67471;44.918;8.614;2023-12-04T17:05:29;4.05;80.23
77056;SHT30;67471;44.918;8.614;2023-12-04T17:08:32;4.00;79.83
77056;SHT30;67471;44.918;8.614;2023-12-04T17:11:36;4.00;80.32
77056;SHT30;67471;44.918;8.614;2023-12-04T17:14:40;3.95;80.76
77056;SHT30;67471;44.918;8.614;2023-12-04T17:17:44;3.98;80.90
77056;SHT30;67471;44.918;8.614;2023-12-04T17:20:48;3.95;81.27
77056;SHT30;67471;44.918;8.614;2023-12-04T17:23:51;3.94;81.24
77056;SHT30;67471;44.918;8.614;2023-12-04T17:26:55;4.00;81.05
77056;SHT30;67471;44.918;8.614;2023-12-04T17:29:59;4.02;81.14
77056;SHT30;67471;44.918;8.614;2023-12-04T17:33:03;4.01;80.84
77056;SHT30;67471;44.918;8.614;2023-12-04T17:36:08;3.98;80.53
77056;SHT30;67471;44.918;8.614;2023-12-04T17:39:14;4.00;80.59
77056;SHT30;67471;44.918;8.614;2023-12-04T17:42:20;3.98;81.16
77056;SHT30;67471;44.918;8.614;2023-12-04T17:45:24;3.97;80.81
77056;SHT30;67471;44.918;8.614;2023-12-04T17:48:28;3.94;81.02
77056;SHT30;67471;44.918;8.614;2023-12-04T17:51:32;3.91;81.22
77056;SHT30;67471;44.918;8.614;2023-12-04T17:54:36;3.95;81.38
77056;SHT30;67471;44.918;8.614;2023-12-04T17:57:39;3.97;81.48
77056;SHT30;67471;44.918;8.614;2023-12-04T18:00:45;3.90;81.80
77056;SHT30;67471;44.918;8.614;2023-12-04T18:03:49;3.91;81.76
77056;SHT30;67471;44.918;8.614;2023-12-04T18:06:53;3.88;81.57
77056;SHT30;67471;44.918;8.614;2023-12-04T18:09:57;3.93;81.54
77056;SHT30;67471;44.918;8.614;2023-12-04T18:13:00;3.98;81.54
77056;SHT30;67471;44.918;8.614;2023-12-04T18:16:04;3.88;81.28
77056;SHT30;67471;44.918;8.614;2023-12-04T18:19:08;3.86;81.86
77056;SHT30;67471;44.918;8.614;2023-12-04T18:22:12;3.87;81.74
77056;SHT30;67471;44.918;8.614;2023-12-04T18:25:16;3.71;82.47
77056;SHT30;67471;44.918;8.614;2023-12-04T18:28:21;3.79;82.08
77056;SHT30;67471;44.918;8.614;2023-12-04T18:31:24;3.79;82.35
77056;SHT30;67471;44.918;8.614;2023-12-04T18:34:28;3.86;81.88
77056;SHT30;67471;44.918;8.614;2023-12-04T18:41:00;3.81;82.05
77056;SHT30;67471;44.918;8.614;2023-12-04T18:44:04;3.93;81.88
77056;SHT30;67471;44.918;8.614;2023-12-04T18:47:08;3.94;81.67
77056;SHT30;67471;44.918;8.614;2023-12-04T18:50:15;3.97;81.28
77056;SHT30;67471;44.918;8.614;2023-12-04T18:53:19;3.95;81.17
77056;SHT30;67471;44.918;8.614;2023-12-04T18:56:23;3.84;81.90
77056;SHT30;67471;44.918;8.614;2023-12-04T18:59:27;3.93;81.27
77056;SHT30;67471;44.918;8.614;2023-12-04T19:02:31;3.95;81.54
77056;SHT30;67471;44.918;8.614;2023-12-04T19:05:35;3.84;81.65
77056;SHT30;67471;44.918;8.614;2023-12-04T19:08:39;3.81;81.77
77056;SHT30;67471;44.918;8.614;2023-12-04T19:11:42;3.84;81.29
77056;SHT30;67471;44.918;8.614;2023-12-04T19:14:46;3.87;80.80
77056;SHT30;67471;44.918;8.614;2023-12-04T19:17:50;3.80;81.09
77056;SHT30;67471;44.918;8.614;2023-12-04T19:20:53;3.69;81.56
77056;SHT30;67471;44.918;8.614;2023-12-04T19:23:57;3.66;81.62
77056;SHT30;67471;44.918;8.614;2023-12-04T19:27:01;3.63;82.04
77056;SHT30;67471;44.918;8.614;2023-12-04T19:30:05;3.69;81.54
77056;SHT30;67471;44.918;8.614;2023-12-04T19:33:11;3.66;81.91
77056;SHT30;67471;44.918;8.614;2023-12-04T19:36:17;3.67;81.38
77056;SHT30;67471;44.918;8.614;2023-12-04T19:39:21;3.59;81.61
77056;SHT30;67471;44.918;8.614;2023-12-04T19:42:24;3.56;81.94
77056;SHT30;67471;44.918;8.614;2023-12-04T19:45:31;3.66;81.48
77056;SHT30;67471;44.918;8.614;2023-12-04T19:48:35;3.64;81.56
77056;SHT30;67471;44.918;8.614;2023-12-04T19:51:42;3.60;81.68
77056;SHT30;67471;44.918;8.614;2023-12-04T19:54:47;3.66;81.69